Time,TemperatureF,DewpointF,PressureIn,WindDirection,WindDirectionDegrees,WindSpeedMPH,WindSpeedGustMPH,Humidity,HourlyPrecipIn,Conditions,Clouds,dailyrainin,SoftwareType,DateUTC
2013-09-28 00:01:00,42.4,17.9,30.09,North,9,0.0,0.0,37,0.00,,---,0.00,VWS V14.01,2013-09-28 07:01:00,
2013-09-28 00:07:00,41.9,17.4,30.09,North,9,0.0,0.0,37,0.00,,---,0.00,VWS V14.01,2013-09-28 07:07:00,
2013-09-28 00:13:00,41.5,17.1,30.09,NNE,22,0.0,0.0,37,0.00,,---,0.00,VWS V14.01,2013-09-28 07:13:00,
2013-09-28 00:19:00,41.7,17.2,30.09,ENE,61,0.0,0.0,37,0.00,,---,0.00,VWS V14.01,2013-09-28 07:19:00,
2013-09-28 00:25:00,41.4,16.9,30.09,SSE,161,0.0,0.0,37,0.00,,---,0.00,VWS V14.01,2013-09-28 07:25:00,
2013-09-28 00:30:00,41.2,16.7,30.09,SE,133,3.1,3.6,37,0.00,,---,0.00,VWS V14.01,2013-09-28 07:30:00,
2013-09-28 00:36:00,41.4,16.9,30.09,East,88,0.0,0.0,37,0.00,,---,0.00,VWS V14.01,2013-09-28 07:36:00,
2013-09-28 00:41:00,41.2,16.7,30.09,East,83,2.7,2.7,37,0.00,,---,0.00,VWS V14.01,2013-09-28 07:41:00,
2013-09-28 00:47:00,41.0,16.6,30.09,East,83,0.0,0.0,37,0.00,,---,0.00,VWS V14.01,2013-09-28 07:47:00,
2013-09-28 00:52:00,40.6,16.3,30.09,SSE,151,0.0,0.0,37,0.00,,---,0.00,VWS V14.01,2013-09-28 07:52:00,
2013-09-28 00:58:00,40.6,16.3,30.09,ESE,111,0.0,0.0,37,0.00,,---,0.00,VWS V14.01,2013-09-28 07:58:00,
2013-09-28 01:03:00,41.2,16.7,30.09,NNE,26,2.2,2.7,37,0.00,,---,0.00,VWS V14.01,2013-09-28 08:03:00,
2013-09-28 01:09:00,40.3,15.9,30.09,North,3,2.2,2.7,37,0.00,,---,0.00,VWS V14.01,2013-09-28 08:09:00,
2013-09-28 01:15:00,39.9,15.6,30.09,ESE,102,0.0,0.0,37,0.00,,---,0.00,VWS V14.01,2013-09-28 08:15:00,
2013-09-28 01:20:00,39.9,15.6,30.09,ESE,108,0.0,0.0,37,0.00,,---,0.00,VWS V14.01,2013-09-28 08:20:00,
2013-09-28 01:26:00,40.3,15.9,30.09,ESE,108,0.0,0.0,37,0.00,,---,0.00,VWS V14.01,2013-09-28 08:26:00,
2013-09-28 01:32:00,40.3,15.9,30.09,East,97,3.6,5.8,37,0.00,,---,0.00,VWS V14.01,2013-09-28 08:32:00,
2013-09-28 01:38:00,41.0,16.6,30.09,ENE,70,5.8,5.8,37,0.00,,---,0.00,VWS V14.01,2013-09-28 08:38:00,
2013-09-28 01:44:00,41.4,16.9,30.09,ENE,63,0.0,2.2,37,0.00,,---,0.00,VWS V14.01,2013-09-28 08:44:00,
2013-09-28 01:50:00,41.0,16.6,30.09,East,81,0.0,0.0,37,0.00,,---,0.00,VWS V14.01,2013-09-28 08:50:00,
2013-09-28 01:55:00,40.8,16.4,30.09,NE,53,0.0,2.2,37,0.00,,---,0.00,VWS V14.01,2013-09-28 08:55:00,
2013-09-28 02:01:00,40.3,15.9,30.09,NE,53,0.0,0.0,37,0.00,,---,0.00,VWS V14.01,2013-09-28 09:01:00,
2013-09-28 02:07:00,39.7,15.5,30.09,NE,48,0.0,0.0,37,0.00,,---,0.00,VWS V14.01,2013-09-28 09:07:00,
2013-09-28 02:12:00,39.4,15.1,30.09,ESE,109,0.0,0.0,37,0.00,,---,0.00,VWS V14.01,2013-09-28 09:12:00,
2013-09-28 02:18:00,39.2,15.0,30.09,ESE,114,3.1,3.6,37,0.00,,---,0.00,VWS V14.01,2013-09-28 09:18:00,
2013-09-28 02:23:00,39.0,14.8,30.09,ESE,103,0.0,2.7,37,0.00,,---,0.00,VWS V14.01,2013-09-28 09:23:00,
2013-09-28 02:28:00,38.8,14.6,30.09,SE,146,0.0,0.0,37,0.00,,---,0.00,VWS V14.01,2013-09-28 09:28:00,
2013-09-28 02:34:00,38.5,14.3,30.09,SE,146,0.0,0.0,37,0.00,,---,0.00,VWS V14.01,2013-09-28 09:34:00,
2013-09-28 02:39:00,38.1,14.0,30.09,SE,146,0.0,0.0,37,0.00,,---,0.00,VWS V14.01,2013-09-28 09:39:00,
2013-09-28 02:44:00,37.9,13.9,30.09,SE,146,0.0,0.0,37,0.00,,---,0.00,VWS V14.01,2013-09-28 09:44:00,
2013-09-28 02:49:00,37.9,13.9,30.09,SE,146,0.0,0.0,37,0.00,,---,0.00,VWS V14.01,2013-09-28 09:49:00,
2013-09-28 02:55:00,37.9,13.9,30.09,SE,146,0.0,0.0,37,0.00,,---,0.00,VWS V14.01,2013-09-28 09:55:00,
2013-09-28 03:00:00,38.1,14.0,30.09,SE,137,5.4,5.8,37,0.00,,---,0.00,VWS V14.01,2013-09-28 10:00:00,
2013-09-28 03:06:00,38.5,14.3,30.09,NNE,24,0.0,3.6,37,0.00,,---,0.00,VWS V14.01,2013-09-28 10:06:00,
2013-09-28 03:11:00,38.1,14.0,30.09,SE,143,0.0,0.0,37,0.00,,---,0.00,VWS V14.01,2013-09-28 10:11:00,
2013-09-28 03:16:00,37.9,13.9,30.09,NE,55,5.8,5.8,37,0.00,,---,0.00,VWS V14.01,2013-09-28 10:16:00,
2013-09-28 03:23:00,39.2,15.0,30.09,ENE,59,8.1,8.3,37,0.00,,---,0.00,VWS V14.01,2013-09-28 10:23:00,
2013-09-28 03:28:00,39.9,15.6,30.09,ENE,73,6.3,7.6,37,0.00,,---,0.00,VWS V14.01,2013-09-28 10:28:00,
2013-09-28 03:34:00,40.6,16.3,30.09,ENE,71,4.9,8.1,37,0.00,,---,0.00,VWS V14.01,2013-09-28 10:34:00,
2013-09-28 03:39:00,40.8,16.4,30.09,NE,38,3.6,4.0,37,0.00,,---,0.00,VWS V14.01,2013-09-28 10:39:00,
2013-09-28 03:45:00,40.3,15.9,30.09,NE,53,5.4,5.8,37,0.00,,---,0.00,VWS V14.01,2013-09-28 10:45:00,
2013-09-28 03:51:00,40.1,15.8,30.09,North,11,3.1,5.8,37,0.00,,---,0.00,VWS V14.01,2013-09-28 10:51:00,
2013-09-28 03:56:00,39.9,15.6,30.09,NE,51,3.6,4.9,37,0.00,,---,0.00,VWS V14.01,2013-09-28 10:56:00,
2013-09-28 04:02:00,39.7,15.5,30.09,NNW,332,2.7,2.7,37,0.00,,---,0.00,VWS V14.01,2013-09-28 11:02:00,
2013-09-28 04:07:00,39.4,15.1,30.06,NNW,335,3.6,3.6,37,0.00,,---,0.00,VWS V14.01,2013-09-28 11:07:00,
2013-09-28 04:12:00,38.8,14.6,30.06,East,96,2.7,4.9,37,0.00,,---,0.00,VWS V14.01,2013-09-28 11:12:00,
2013-09-28 04:18:00,39.4,15.1,30.06,NE,55,7.6,8.1,37,0.00,,---,0.00,VWS V14.01,2013-09-28 11:18:00,
2013-09-28 04:24:00,40.5,16.1,30.09,NE,41,3.6,5.8,37,0.00,,---,0.00,VWS V14.01,2013-09-28 11:24:00,
2013-09-28 04:29:00,40.8,16.4,30.09,NNE,25,2.7,5.8,37,0.00,,---,0.00,VWS V14.01,2013-09-28 11:29:00,
2013-09-28 04:35:00,40.8,16.4,30.09,NE,43,5.4,5.4,37,0.00,,---,0.00,VWS V14.01,2013-09-28 11:35:00,
2013-09-28 04:40:00,41.2,16.7,30.09,East,81,2.7,5.8,37,0.00,,---,0.00,VWS V14.01,2013-09-28 11:40:00,
2013-09-28 04:45:00,41.2,16.7,30.09,East,82,2.2,2.2,37,0.00,,---,0.00,VWS V14.01,2013-09-28 11:45:00,
2013-09-28 04:50:00,41.0,16.6,30.09,East,96,0.0,4.0,37,0.00,,---,0.00,VWS V14.01,2013-09-28 11:50:00,
2013-09-28 04:56:00,40.5,16.1,30.09,ENE,74,3.1,4.0,37,0.00,,---,0.00,VWS V14.01,2013-09-28 11:56:00,
2013-09-28 05:01:00,39.9,15.6,30.09,ENE,70,0.0,0.0,37,0.00,,---,0.00,VWS V14.01,2013-09-28 12:01:00,
2013-09-28 05:07:00,39.4,15.1,30.09,ENE,68,0.0,0.0,37,0.00,,---,0.00,VWS V14.01,2013-09-28 12:07:00,
2013-09-28 05:13:00,39.0,14.8,30.09,North,10,0.0,0.0,37,0.00,,---,0.00,VWS V14.01,2013-09-28 12:13:00,
2013-09-28 05:18:00,38.7,14.5,30.09,SE,133,0.0,0.0,37,0.00,,---,0.00,VWS V14.01,2013-09-28 12:18:00,
2013-09-28 05:24:00,38.5,14.3,30.09,East,96,0.0,0.0,37,0.00,,---,0.00,VWS V14.01,2013-09-28 12:24:00,
2013-09-28 05:29:00,38.7,14.5,30.09,SE,130,0.0,0.0,37,0.00,,---,0.00,VWS V14.01,2013-09-28 12:29:00,
2013-09-28 05:34:00,37.9,13.9,30.09,SE,130,0.0,0.0,37,0.00,,---,0.00,VWS V14.01,2013-09-28 12:34:00,
2013-09-28 05:40:00,37.4,13.4,30.09,SE,130,0.0,0.0,37,0.00,,---,0.00,VWS V14.01,2013-09-28 12:40:00,
2013-09-28 05:46:00,36.9,13.9,30.09,South,189,0.0,0.0,38,0.00,,---,0.00,VWS V14.01,2013-09-28 12:46:00,
2013-09-28 05:51:00,37.0,14.1,30.09,NE,54,3.6,4.9,38,0.00,,---,0.00,VWS V14.01,2013-09-28 12:51:00,
2013-09-28 05:56:00,37.8,13.7,30.09,East,97,3.6,5.4,37,0.00,,---,0.00,VWS V14.01,2013-09-28 12:56:00,
2013-09-28 06:02:00,38.5,14.3,30.09,NNE,21,2.2,2.7,37,0.00,,---,0.00,VWS V14.01,2013-09-28 13:02:00,
2013-09-28 06:07:00,38.5,17.4,30.09,SE,143,3.1,3.1,42,0.00,,---,0.00,VWS V14.01,2013-09-28 13:07:00,
2013-09-28 06:13:00,38.1,14.0,30.09,ENE,70,3.1,3.6,37,0.00,,---,0.00,VWS V14.01,2013-09-28 13:13:00,
2013-09-28 06:18:00,37.9,16.9,30.09,ENE,57,4.5,5.4,42,0.00,,---,0.00,VWS V14.01,2013-09-28 13:18:00,
2013-09-28 06:23:00,37.9,16.9,30.09,ENE,71,0.0,0.0,42,0.00,,---,0.00,VWS V14.01,2013-09-28 13:23:00,
2013-09-28 06:29:00,37.6,16.6,30.09,ENE,71,0.0,0.0,42,0.00,,---,0.00,VWS V14.01,2013-09-28 13:29:00,
2013-09-28 06:35:00,37.2,16.3,30.09,East,81,0.0,0.0,42,0.00,,---,0.00,VWS V14.01,2013-09-28 13:35:00,
2013-09-28 06:41:00,37.4,16.4,30.09,ENE,64,2.7,3.1,42,0.00,,---,0.00,VWS V14.01,2013-09-28 13:41:00,
2013-09-28 06:46:00,37.0,16.1,30.09,East,90,0.0,0.0,42,0.00,,---,0.00,VWS V14.01,2013-09-28 13:46:00,
2013-09-28 06:52:00,36.9,15.9,30.09,East,81,0.0,0.0,42,0.00,,---,0.00,VWS V14.01,2013-09-28 13:52:00,
2013-09-28 06:57:00,37.0,16.1,30.09,NE,38,3.1,3.1,42,0.00,,---,0.00,VWS V14.01,2013-09-28 13:57:00,
2013-09-28 07:03:00,36.9,15.9,30.09,NNW,338,0.0,0.0,42,0.00,,---,0.00,VWS V14.01,2013-09-28 14:03:00,
2013-09-28 07:08:00,36.9,15.9,30.09,NNW,337,0.0,0.0,42,0.00,,---,0.00,VWS V14.01,2013-09-28 14:08:00,
2013-09-28 07:13:00,37.2,16.3,30.09,NNW,337,0.0,0.0,42,0.00,,---,0.00,VWS V14.01,2013-09-28 14:13:00,
2013-09-28 07:18:00,37.4,16.4,30.09,NNW,337,0.0,0.0,42,0.00,,---,0.00,VWS V14.01,2013-09-28 14:18:00,
2013-09-28 07:25:00,38.1,17.1,30.09,NNW,337,0.0,0.0,42,0.00,,---,0.00,VWS V14.01,2013-09-28 14:25:00,
2013-09-28 07:32:00,39.2,17.1,30.09,North,0,0.0,0.0,40,0.00,,---,0.00,VWS V14.01,2013-09-28 14:32:00,
2013-09-28 07:37:00,40.3,20.9,30.09,North,0,0.0,0.0,46,0.00,,---,0.00,VWS V14.01,2013-09-28 14:37:00,
2013-09-28 07:44:00,41.9,22.4,30.09,North,0,0.0,0.0,46,0.00,,---,0.00,VWS V14.01,2013-09-28 14:44:00,
2013-09-28 07:49:00,43.3,22.8,30.09,North,0,0.0,0.0,44,0.00,,---,0.00,VWS V14.01,2013-09-28 14:49:00,
2013-09-28 07:55:00,44.8,24.1,30.09,North,0,0.0,0.0,44,0.00,,---,0.00,VWS V14.01,2013-09-28 14:55:00,
2013-09-28 08:00:00,47.3,25.4,30.09,NNE,33,0.0,0.0,42,0.00,,---,0.00,VWS V14.01,2013-09-28 15:00:00,
2013-09-28 08:05:00,48.9,28.8,30.09,ENE,59,0.0,0.0,46,0.00,,---,0.00,VWS V14.01,2013-09-28 15:05:00,
2013-09-28 08:11:00,50.9,30.6,30.09,SE,129,0.0,0.0,46,0.00,,---,0.00,VWS V14.01,2013-09-28 15:11:00,
2013-09-28 08:17:00,53.6,32.1,30.09,SSE,156,0.0,0.0,44,0.00,,---,0.00,VWS V14.01,2013-09-28 15:17:00,
2013-09-28 08:23:00,56.1,34.4,30.09,NE,51,5.8,6.3,44,0.00,,---,0.00,VWS V14.01,2013-09-28 15:23:00,
2013-09-28 08:28:00,58.5,33.3,30.09,NNE,28,4.0,4.0,38,0.00,,---,0.00,VWS V14.01,2013-09-28 15:28:00,
2013-09-28 08:34:00,61.2,34.5,30.09,NNE,33,8.1,8.1,37,0.00,,---,0.00,VWS V14.01,2013-09-28 15:34:00,
2013-09-28 08:39:00,63.1,32.4,30.09,NE,51,7.6,7.6,32,0.00,,---,0.00,VWS V14.01,2013-09-28 15:39:00,
2013-09-28 08:45:00,64.6,33.7,30.09,East,90,8.1,8.1,32,0.00,,---,0.00,VWS V14.01,2013-09-28 15:45:00,
2013-09-28 08:50:00,65.7,34.6,30.09,NE,45,4.9,5.4,32,0.00,,---,0.00,VWS V14.01,2013-09-28 15:50:00,
2013-09-28 08:55:00,66.6,30.9,30.09,ENE,71,10.1,10.1,26,0.00,,---,0.00,VWS V14.01,2013-09-28 15:55:00,
2013-09-28 09:01:00,67.5,31.6,30.09,ESE,112,5.8,8.1,26,0.00,,---,0.00,VWS V14.01,2013-09-28 16:01:00,
2013-09-28 09:06:00,68.0,32.1,30.12,NE,51,10.1,10.1,26,0.00,,---,0.00,VWS V14.01,2013-09-28 16:06:00,
2013-09-28 09:12:00,68.7,32.7,30.12,East,85,11.0,11.0,26,0.00,,---,0.00,VWS V14.01,2013-09-28 16:12:00,
2013-09-28 09:18:00,69.4,33.3,30.12,East,87,8.3,10.5,26,0.00,,---,0.00,VWS V14.01,2013-09-28 16:18:00,
2013-09-28 09:23:00,70.0,32.1,30.12,ESE,109,10.1,10.1,24,0.00,,---,0.00,VWS V14.01,2013-09-28 16:23:00,
2013-09-28 09:28:00,70.5,32.5,30.12,ESE,102,7.6,10.5,24,0.00,,---,0.00,VWS V14.01,2013-09-28 16:28:00,
2013-09-28 09:34:00,71.2,33.1,30.12,ESE,111,5.8,12.8,24,0.00,,---,0.00,VWS V14.01,2013-09-28 16:34:00,
2013-09-28 09:39:00,71.6,33.4,30.12,ESE,108,10.1,11.0,24,0.00,,---,0.00,VWS V14.01,2013-09-28 16:39:00,
2013-09-28 09:45:00,71.6,33.4,30.12,East,83,9.6,13.2,24,0.00,,---,0.00,VWS V14.01,2013-09-28 16:45:00,
2013-09-28 09:50:00,72.1,33.9,30.12,East,96,8.7,15.0,24,0.00,,---,0.00,VWS V14.01,2013-09-28 16:50:00,
2013-09-28 09:56:00,72.7,34.4,30.12,ESE,123,11.9,15.9,24,0.00,,---,0.00,VWS V14.01,2013-09-28 16:56:00,
2013-09-28 10:01:00,72.9,34.5,30.12,ESE,112,8.7,15.0,24,0.00,,---,0.00,VWS V14.01,2013-09-28 17:01:00,
2013-09-28 10:07:00,73.2,34.8,30.12,SE,127,13.2,15.4,24,0.00,,---,0.00,VWS V14.01,2013-09-28 17:07:00,
2013-09-28 10:12:00,73.4,33.1,30.12,ESE,110,13.2,14.1,23,0.00,,---,0.00,VWS V14.01,2013-09-28 17:12:00,
2013-09-28 10:18:00,73.4,33.1,30.12,ESE,116,15.0,15.4,23,0.00,,---,0.00,VWS V14.01,2013-09-28 17:18:00,
2013-09-28 10:23:00,73.8,33.4,30.09,NE,56,8.7,11.0,23,0.00,,---,0.00,VWS V14.01,2013-09-28 17:23:00,
2013-09-28 10:28:00,74.3,33.9,30.09,East,95,8.7,11.4,23,0.00,,---,0.00,VWS V14.01,2013-09-28 17:28:00,
2013-09-28 10:34:00,74.5,34.0,30.09,SE,128,10.5,13.2,23,0.00,,---,0.00,VWS V14.01,2013-09-28 17:34:00,
2013-09-28 10:39:00,74.5,34.0,30.12,ESE,119,15.0,15.0,23,0.00,,---,0.00,VWS V14.01,2013-09-28 17:39:00,
2013-09-28 10:45:00,74.7,34.2,30.12,ESE,116,11.0,11.0,23,0.00,,---,0.00,VWS V14.01,2013-09-28 17:45:00,
2013-09-28 10:50:00,75.0,34.5,30.12,SE,139,11.0,11.0,23,0.00,,---,0.00,VWS V14.01,2013-09-28 17:50:00,
2013-09-28 10:55:00,75.6,34.9,30.12,ENE,70,7.6,11.9,23,0.00,,---,0.00,VWS V14.01,2013-09-28 17:55:00,
2013-09-28 11:01:00,75.7,35.1,30.12,ENE,72,10.1,13.2,23,0.00,,---,0.00,VWS V14.01,2013-09-28 18:01:00,
2013-09-28 11:06:00,76.5,35.7,30.12,ESE,116,8.7,13.6,23,0.00,,---,0.00,VWS V14.01,2013-09-28 18:06:00,
2013-09-28 11:12:00,77.0,36.1,30.12,ESE,121,7.6,8.1,23,0.00,,---,0.00,VWS V14.01,2013-09-28 18:12:00,
2013-09-28 11:17:00,77.0,36.1,30.12,ESE,104,13.2,13.2,23,0.00,,---,0.00,VWS V14.01,2013-09-28 18:17:00,
2013-09-28 11:22:00,77.5,36.6,30.12,SE,128,9.6,9.6,23,0.00,,---,0.00,VWS V14.01,2013-09-28 18:22:00,
2013-09-28 11:28:00,77.5,36.6,30.12,East,101,9.2,12.8,23,0.00,,---,0.00,VWS V14.01,2013-09-28 18:28:00,
2013-09-28 11:34:00,77.9,36.9,30.12,ESE,123,10.1,10.1,23,0.00,,---,0.00,VWS V14.01,2013-09-28 18:34:00,
2013-09-28 11:39:00,77.9,36.9,30.12,East,87,8.3,12.8,23,0.00,,---,0.00,VWS V14.01,2013-09-28 18:39:00,
2013-09-28 11:44:00,78.3,37.2,30.12,SE,137,8.3,8.7,23,0.00,,---,0.00,VWS V14.01,2013-09-28 18:44:00,
2013-09-28 11:50:00,78.4,37.3,30.12,SE,130,11.0,13.2,23,0.00,,---,0.00,VWS V14.01,2013-09-28 18:50:00,
2013-09-28 11:55:00,78.8,35.6,30.12,SE,142,5.4,8.7,21,0.00,,---,0.00,VWS V14.01,2013-09-28 18:55:00,
2013-09-28 12:01:00,78.6,37.5,30.12,ESE,110,6.3,8.7,23,0.00,,---,0.00,VWS V14.01,2013-09-28 19:01:00,
2013-09-28 12:07:00,78.4,37.3,30.12,SE,136,13.2,13.2,23,0.00,,---,0.00,VWS V14.01,2013-09-28 19:07:00,
2013-09-28 12:13:00,79.0,35.8,30.12,East,101,8.7,11.4,21,0.00,,---,0.00,VWS V14.01,2013-09-28 19:13:00,
2013-09-28 12:18:00,79.0,35.8,30.12,ESE,121,8.3,11.9,21,0.00,,---,0.00,VWS V14.01,2013-09-28 19:18:00,
2013-09-28 12:24:00,79.7,36.3,30.12,ESE,106,6.7,9.6,21,0.00,,---,0.00,VWS V14.01,2013-09-28 19:24:00,
2013-09-28 12:30:00,79.0,35.8,30.12,ENE,75,10.5,11.0,21,0.00,,---,0.00,VWS V14.01,2013-09-28 19:30:00,
2013-09-28 12:35:00,79.5,36.2,30.09,ENE,64,8.7,8.7,21,0.00,,---,0.00,VWS V14.01,2013-09-28 19:35:00,
2013-09-28 12:41:00,78.8,35.6,30.09,North,3,6.3,8.3,21,0.00,,---,0.00,VWS V14.01,2013-09-28 19:41:00,
2013-09-28 12:46:00,79.5,36.2,30.09,SE,128,7.6,10.5,21,0.00,,---,0.00,VWS V14.01,2013-09-28 19:46:00,
2013-09-28 12:52:00,80.1,36.7,30.09,East,89,11.0,18.3,21,0.00,,---,0.00,VWS V14.01,2013-09-28 19:52:00,
2013-09-28 12:57:00,80.4,37.0,30.09,East,91,2.7,8.7,21,0.00,,---,0.00,VWS V14.01,2013-09-28 19:57:00,
2013-09-28 13:02:00,80.2,36.8,30.09,ESE,102,8.3,8.7,21,0.00,,---,0.00,VWS V14.01,2013-09-28 20:02:00,
2013-09-28 13:07:00,80.1,36.7,30.09,ENE,59,4.0,4.0,21,0.00,,---,0.00,VWS V14.01,2013-09-28 20:07:00,
2013-09-28 13:13:00,80.1,36.7,30.09,ESE,121,6.3,8.3,21,0.00,,---,0.00,VWS V14.01,2013-09-28 20:13:00,
2013-09-28 13:18:00,80.6,37.1,30.09,ENE,61,8.3,8.3,21,0.00,,---,0.00,VWS V14.01,2013-09-28 20:18:00,
2013-09-28 13:24:00,80.4,37.0,30.09,NNE,32,3.1,8.3,21,0.00,,---,0.00,VWS V14.01,2013-09-28 20:24:00,
2013-09-28 13:29:00,79.5,36.2,30.09,NE,53,15.4,15.4,21,0.00,,---,0.00,VWS V14.01,2013-09-28 20:29:00,
2013-09-28 13:35:00,79.7,36.3,30.09,NNE,29,3.1,4.9,21,0.00,,---,0.00,VWS V14.01,2013-09-28 20:35:00,
2013-09-28 13:41:00,79.9,36.5,30.09,ENE,69,9.6,13.2,21,0.00,,---,0.00,VWS V14.01,2013-09-28 20:41:00,
2013-09-28 13:47:00,80.2,36.8,30.09,ENE,57,11.0,11.0,21,0.00,,---,0.00,VWS V14.01,2013-09-28 20:47:00,
2013-09-28 13:52:00,80.6,37.1,30.09,ESE,122,4.0,8.7,21,0.00,,---,0.00,VWS V14.01,2013-09-28 20:52:00,
2013-09-28 13:57:00,81.1,37.5,30.09,East,83,2.7,5.4,21,0.00,,---,0.00,VWS V14.01,2013-09-28 20:57:00,
2013-09-28 14:03:00,81.3,37.7,30.09,North,357,4.0,6.3,21,0.00,,---,0.00,VWS V14.01,2013-09-28 21:03:00,
2013-09-28 14:09:00,81.1,41.5,30.09,North,2,5.4,10.5,24,0.00,,---,0.00,VWS V14.01,2013-09-28 21:09:00,
2013-09-28 14:14:00,81.0,37.4,30.09,NNE,26,8.1,8.1,21,0.00,,---,0.00,VWS V14.01,2013-09-28 21:14:00,
2013-09-28 14:20:00,80.4,37.0,30.09,NE,53,13.2,14.1,21,0.00,,---,0.00,VWS V14.01,2013-09-28 21:20:00,
2013-09-28 14:25:00,80.8,37.2,30.06,NNE,25,7.6,9.2,21,0.00,,---,0.00,VWS V14.01,2013-09-28 21:25:00,
2013-09-28 14:31:00,80.2,36.8,30.06,ENE,66,15.0,15.0,21,0.00,,---,0.00,VWS V14.01,2013-09-28 21:31:00,
2013-09-28 14:36:00,80.6,37.1,30.06,NE,54,8.7,11.0,21,0.00,,---,0.00,VWS V14.01,2013-09-28 21:36:00,
2013-09-28 14:42:00,80.6,37.1,30.06,NE,34,2.2,5.4,21,0.00,,---,0.00,VWS V14.01,2013-09-28 21:42:00,
2013-09-28 14:47:00,81.1,41.5,30.06,NE,42,5.4,5.8,24,0.00,,---,0.00,VWS V14.01,2013-09-28 21:47:00,
2013-09-28 14:53:00,81.1,37.5,30.06,NE,54,8.1,8.1,21,0.00,,---,0.00,VWS V14.01,2013-09-28 21:53:00,
2013-09-28 14:58:00,80.8,37.2,30.06,NE,41,8.3,8.7,21,0.00,,---,0.00,VWS V14.01,2013-09-28 21:58:00,
2013-09-28 15:03:00,80.8,41.2,30.06,ENE,68,12.3,13.6,24,0.00,,---,0.00,VWS V14.01,2013-09-28 22:03:00,
2013-09-28 15:10:00,80.8,41.2,30.06,NE,56,7.6,7.6,24,0.00,,---,0.00,VWS V14.01,2013-09-28 22:10:00,
2013-09-28 15:15:00,80.8,41.2,30.06,NE,48,12.8,15.4,24,0.00,,---,0.00,VWS V14.01,2013-09-28 22:15:00,
2013-09-28 15:21:00,81.0,41.3,30.06,ESE,105,5.8,8.7,24,0.00,,---,0.00,VWS V14.01,2013-09-28 22:21:00,
2013-09-28 15:26:00,80.8,37.2,30.06,NE,39,10.5,12.8,21,0.00,,---,0.00,VWS V14.01,2013-09-28 22:26:00,
2013-09-28 15:32:00,81.0,37.4,30.06,North,0,5.8,5.8,21,0.00,,---,0.00,VWS V14.01,2013-09-28 22:32:00,
2013-09-28 15:37:00,81.0,37.4,30.06,ENE,67,9.2,9.2,21,0.00,,---,0.00,VWS V14.01,2013-09-28 22:37:00,
2013-09-28 15:42:00,81.1,41.5,30.06,ENE,57,8.7,13.2,24,0.00,,---,0.00,VWS V14.01,2013-09-28 22:42:00,
2013-09-28 15:48:00,81.3,41.7,30.06,East,92,2.7,8.1,24,0.00,,---,0.00,VWS V14.01,2013-09-28 22:48:00,
2013-09-28 15:53:00,81.3,41.7,30.06,East,96,8.3,8.3,24,0.00,,---,0.00,VWS V14.01,2013-09-28 22:53:00,
2013-09-28 15:59:00,81.3,41.7,30.06,East,83,8.7,11.0,24,0.00,,---,0.00,VWS V14.01,2013-09-28 22:59:00,
2013-09-28 16:06:00,81.5,41.8,30.06,ESE,103,6.3,8.7,24,0.00,,---,0.00,VWS V14.01,2013-09-28 23:06:00,
2013-09-28 16:12:00,81.5,41.8,30.06,ESE,116,3.6,5.8,24,0.00,,---,0.00,VWS V14.01,2013-09-28 23:12:00,
2013-09-28 16:18:00,81.1,37.5,30.06,North,353,4.0,4.0,21,0.00,,---,0.00,VWS V14.01,2013-09-28 23:18:00,
2013-09-28 16:23:00,81.0,37.4,30.06,SW,216,10.5,10.5,21,0.00,,---,0.00,VWS V14.01,2013-09-28 23:23:00,
2013-09-28 16:28:00,80.6,41.0,30.06,WSW,245,6.3,7.6,24,0.00,,---,0.00,VWS V14.01,2013-09-28 23:28:00,
2013-09-28 16:34:00,79.5,36.2,30.06,NW,311,8.1,8.3,21,0.00,,---,0.00,VWS V14.01,2013-09-28 23:34:00,
2013-09-28 16:40:00,78.8,35.6,30.06,West,265,12.3,12.3,21,0.00,,---,0.00,VWS V14.01,2013-09-28 23:40:00,
2013-09-28 16:45:00,78.6,37.5,30.06,WSW,247,6.3,6.3,23,0.00,,---,0.00,VWS V14.01,2013-09-28 23:45:00,
2013-09-28 16:51:00,78.4,37.3,30.06,West,277,7.6,10.1,23,0.00,,---,0.00,VWS V14.01,2013-09-28 23:51:00,
2013-09-28 16:56:00,78.1,37.0,30.06,NW,308,8.7,13.2,23,0.00,,---,0.00,VWS V14.01,2013-09-28 23:56:00,
2013-09-28 18:50:00,66.4,30.7,30.09,NNE,12,4.9,4.9,26,0.00,,---,0.00,VWS V14.01,2013-09-29 01:50:00,
2013-09-28 18:55:00,65.7,30.1,30.09,North,350,3.6,3.6,26,0.00,,---,0.00,VWS V14.01,2013-09-29 01:55:00,
2013-09-28 19:00:00,64.8,29.3,30.09,NNW,342,4.0,5.4,26,0.00,,---,0.00,VWS V14.01,2013-09-29 02:00:00,
2013-09-28 19:06:00,64.0,30.3,30.09,NNW,346,3.1,3.6,28,0.00,,---,0.00,VWS V14.01,2013-09-29 02:06:00,
2013-09-28 19:11:00,63.7,30.0,30.09,North,9,5.4,5.4,28,0.00,,---,0.00,VWS V14.01,2013-09-29 02:11:00,
2013-09-28 19:17:00,63.3,29.7,30.09,ENE,69,4.5,4.5,28,0.00,,---,0.00,VWS V14.01,2013-09-29 02:17:00,
2013-09-28 19:22:00,63.1,29.5,30.09,NE,52,3.6,4.0,28,0.00,,---,0.00,VWS V14.01,2013-09-29 02:22:00,
2013-09-28 19:28:00,62.8,29.2,30.09,East,101,4.0,5.8,28,0.00,,---,0.00,VWS V14.01,2013-09-29 02:28:00,
2013-09-28 19:33:00,62.1,28.6,30.09,East,97,3.1,5.8,28,0.00,,---,0.00,VWS V14.01,2013-09-29 02:33:00,
2013-09-28 19:39:00,61.3,28.0,30.09,East,89,4.0,4.5,28,0.00,,---,0.00,VWS V14.01,2013-09-29 02:39:00,
2013-09-28 19:45:00,60.8,27.5,30.09,East,97,4.9,5.4,28,0.00,,---,0.00,VWS V14.01,2013-09-29 02:45:00,
2013-09-28 19:51:00,60.3,28.5,30.09,ENE,73,4.5,7.6,30,0.00,,---,0.00,VWS V14.01,2013-09-29 02:51:00,
2013-09-28 19:56:00,59.7,28.0,30.09,ENE,74,4.9,5.8,30,0.00,,---,0.00,VWS V14.01,2013-09-29 02:56:00,
2013-09-28 20:02:00,59.4,27.7,30.09,ENE,71,3.1,4.0,30,0.00,,---,0.00,VWS V14.01,2013-09-29 03:02:00,
2013-09-28 20:07:00,58.8,27.3,30.09,SSE,150,5.8,6.3,30,0.00,,---,0.00,VWS V14.01,2013-09-29 03:07:00,
2013-09-28 20:12:00,57.9,26.5,30.09,SSE,147,4.0,4.9,30,0.00,,---,0.00,VWS V14.01,2013-09-29 03:12:00,
2013-09-28 20:18:00,57.4,26.0,30.09,SE,133,3.6,4.0,30,0.00,,---,0.00,VWS V14.01,2013-09-29 03:18:00,
2013-09-28 20:24:00,57.0,25.7,30.12,ESE,119,3.6,3.6,30,0.00,,---,0.00,VWS V14.01,2013-09-29 03:24:00,
2013-09-28 20:30:00,56.7,25.4,30.12,ESE,122,3.6,3.6,30,0.00,,---,0.00,VWS V14.01,2013-09-29 03:30:00,
2013-09-28 20:35:00,56.3,25.1,30.12,ESE,110,5.4,6.3,30,0.00,,---,0.00,VWS V14.01,2013-09-29 03:35:00,
2013-09-28 20:40:00,56.1,24.9,30.12,ESE,109,6.7,6.7,30,0.00,,---,0.00,VWS V14.01,2013-09-29 03:40:00,
2013-09-28 20:45:00,55.9,24.8,30.12,SE,129,4.0,4.0,30,0.00,,---,0.00,VWS V14.01,2013-09-29 03:45:00,
2013-09-28 20:50:00,55.6,24.5,30.12,ESE,119,3.1,3.1,30,0.00,,---,0.00,VWS V14.01,2013-09-29 03:50:00,
2013-09-28 20:55:00,55.4,24.3,30.12,ESE,106,4.0,4.9,30,0.00,,---,0.00,VWS V14.01,2013-09-29 03:55:00,
2013-09-28 21:01:00,55.4,24.3,30.12,ESE,110,3.1,3.1,30,0.00,,---,0.00,VWS V14.01,2013-09-29 04:01:00,
2013-09-28 21:02:00,55.2,25.5,30.12,East,89,5.8,5.8,32,0.00,,---,0.00,VWS V14.01,2013-09-29 04:02:00,
2013-09-28 21:05:00,55.2,25.5,30.12,East,84,4.9,5.4,32,0.00,,---,0.00,VWS V14.01,2013-09-29 04:05:00,
2013-09-28 21:11:00,54.7,25.0,30.12,East,101,5.4,6.3,32,0.00,,---,0.00,VWS V14.01,2013-09-29 04:11:00,
2013-09-28 21:12:00,54.7,25.0,30.12,ESE,120,4.5,5.4,32,0.00,,---,0.00,VWS V14.01,2013-09-29 04:12:00,
2013-09-28 21:18:00,54.5,24.9,30.12,SE,146,3.6,4.0,32,0.00,,---,0.00,VWS V14.01,2013-09-29 04:18:00,
2013-09-28 21:23:00,53.8,24.3,30.12,ESE,111,6.3,6.3,32,0.00,,---,0.00,VWS V14.01,2013-09-29 04:23:00,
2013-09-28 21:28:00,53.6,24.1,30.12,ESE,108,2.2,4.9,32,0.00,,---,0.00,VWS V14.01,2013-09-29 04:28:00,
2013-09-28 21:34:00,53.2,23.8,30.12,ENE,75,3.1,3.6,32,0.00,,---,0.00,VWS V14.01,2013-09-29 04:34:00,
2013-09-28 21:39:00,52.9,23.5,30.12,ESE,106,3.1,3.1,32,0.00,,---,0.00,VWS V14.01,2013-09-29 04:39:00,
2013-09-28 21:45:00,52.3,23.0,30.12,ESE,115,4.0,4.0,32,0.00,,---,0.00,VWS V14.01,2013-09-29 04:45:00,
2013-09-28 21:51:00,51.8,22.5,30.12,SE,143,2.7,2.7,32,0.00,,---,0.00,VWS V14.01,2013-09-29 04:51:00,
2013-09-28 21:56:00,51.3,23.3,30.12,SE,143,2.7,2.7,33,0.00,,---,0.00,VWS V14.01,2013-09-29 04:56:00,
2013-09-28 22:01:00,50.7,22.9,30.12,ESE,108,2.7,3.6,33,0.00,,---,0.00,VWS V14.01,2013-09-29 05:01:00,
2013-09-28 22:07:00,49.8,22.1,30.15,East,85,0.0,0.0,33,0.00,,---,0.00,VWS V14.01,2013-09-29 05:07:00,
2013-09-28 22:12:00,49.5,21.8,30.15,East,92,0.0,0.0,33,0.00,,---,0.00,VWS V14.01,2013-09-29 05:12:00,
2013-09-28 22:18:00,49.1,21.4,30.15,East,92,0.0,0.0,33,0.00,,---,0.00,VWS V14.01,2013-09-29 05:18:00,
2013-09-28 22:24:00,48.4,20.8,30.15,ENE,69,0.0,0.0,33,0.00,,---,0.00,VWS V14.01,2013-09-29 05:24:00,
2013-09-28 22:29:00,48.2,20.6,30.15,ENE,73,0.0,0.0,33,0.00,,---,0.00,VWS V14.01,2013-09-29 05:29:00,
2013-09-28 22:35:00,47.7,20.2,30.15,ENE,74,0.0,0.0,33,0.00,,---,0.00,VWS V14.01,2013-09-29 05:35:00,
2013-09-28 22:41:00,47.5,20.0,30.15,ENE,70,5.4,5.4,33,0.00,,---,0.00,VWS V14.01,2013-09-29 05:41:00,
2013-09-28 22:46:00,47.1,19.7,30.15,NE,42,3.1,3.6,33,0.00,,---,0.00,VWS V14.01,2013-09-29 05:46:00,
2013-09-28 22:52:00,46.8,19.4,30.15,ENE,73,3.6,3.6,33,0.00,,---,0.00,VWS V14.01,2013-09-29 05:52:00,
2013-09-28 22:57:00,46.8,19.4,30.15,ENE,73,0.0,0.0,33,0.00,,---,0.00,VWS V14.01,2013-09-29 05:57:00,
2013-09-28 23:02:00,46.6,19.2,30.15,ENE,73,0.0,0.0,33,0.00,,---,0.00,VWS V14.01,2013-09-29 06:02:00,
2013-09-28 23:08:00,46.4,19.0,30.15,ENE,73,0.0,0.0,33,0.00,,---,0.00,VWS V14.01,2013-09-29 06:08:00,
2013-09-28 23:13:00,46.0,19.9,30.15,ENE,73,0.0,0.0,35,0.00,,---,0.00,VWS V14.01,2013-09-29 06:13:00,
2013-09-28 23:19:00,45.5,19.5,30.15,NE,46,2.7,3.1,35,0.00,,---,0.00,VWS V14.01,2013-09-29 06:19:00,
2013-09-28 23:25:00,44.8,18.8,30.15,NE,45,0.0,2.2,35,0.00,,---,0.00,VWS V14.01,2013-09-29 06:25:00,
2013-09-28 23:30:00,44.4,18.5,30.15,NE,45,0.0,0.0,35,0.00,,---,0.00,VWS V14.01,2013-09-29 06:30:00,
2013-09-28 23:36:00,44.1,18.2,30.15,NE,45,0.0,0.0,35,0.00,,---,0.00,VWS V14.01,2013-09-29 06:36:00,
2013-09-28 23:42:00,43.9,18.0,30.15,NE,45,0.0,0.0,35,0.00,,---,0.00,VWS V14.01,2013-09-29 06:42:00,
2013-09-28 23:47:00,43.7,17.9,30.15,NE,45,0.0,0.0,35,0.00,,---,0.00,VWS V14.01,2013-09-29 06:47:00,
2013-09-28 23:52:00,43.7,17.9,30.15,NE,45,0.0,0.0,35,0.00,,---,0.00,VWS V14.01,2013-09-29 06:52:00,
2013-09-28 23:58:00,43.3,17.5,30.15,NE,45,0.0,0.0,35,0.00,,---,0.00,VWS V14.01,2013-09-29 06:58:00,